createdAt,value
2023-05-25T00:01:05.158Z,12.20
2023-05-25T00:03:32.670Z,12.20
2023-05-25T00:06:02.957Z,12.10
2023-05-25T00:08:29.937Z,12.10
2023-05-25T00:10:56.832Z,12.10
2023-05-25T00:13:23.599Z,12.00
2023-05-25T00:15:50.539Z,12.00
2023-05-25T00:18:18.607Z,12.00
2023-05-25T00:20:47.468Z,11.90
2023-05-25T00:23:14.939Z,12.00
2023-05-25T00:25:41.840Z,12.00
2023-05-25T00:28:09.639Z,12.00
2023-05-25T00:30:36.753Z,12.00
2023-05-25T00:33:03.982Z,12.00
2023-05-25T00:35:30.811Z,11.90
2023-05-25T00:37:58.088Z,11.90
2023-05-25T00:40:24.880Z,12.00
2023-05-25T00:42:52.731Z,12.00
2023-05-25T00:45:19.730Z,11.90
2023-05-25T00:47:47.013Z,12.00
2023-05-25T00:50:15.315Z,11.90
2023-05-25T00:52:42.111Z,11.80
2023-05-25T00:55:11.666Z,11.80
2023-05-25T00:57:38.721Z,11.80
2023-05-25T01:00:11.440Z,11.80
2023-05-25T01:02:38.523Z,11.80
2023-05-25T01:05:07.227Z,11.70
2023-05-25T01:07:34.070Z,11.70
2023-05-25T01:10:02.346Z,11.70
2023-05-25T01:12:29.927Z,11.70
2023-05-25T01:14:57.105Z,11.70
2023-05-25T01:17:24.110Z,11.70
2023-05-25T01:20:09.028Z,11.70
2023-05-25T01:22:51.813Z,11.60
2023-05-25T01:25:37.035Z,11.60
2023-05-25T01:28:08.028Z,11.60
2023-05-25T01:30:35.398Z,11.50
2023-05-25T01:33:02.329Z,11.50
2023-05-25T01:35:29.202Z,11.50
2023-05-25T01:37:56.109Z,11.50
2023-05-25T01:40:22.849Z,11.50
2023-05-25T01:42:50.028Z,11.50
2023-05-25T01:45:16.920Z,11.50
2023-05-25T01:48:05.384Z,11.50
2023-05-25T01:51:11.275Z,11.50
2023-05-25T01:53:42.858Z,11.40
2023-05-25T01:56:11.740Z,11.40
2023-05-25T01:58:47.665Z,11.50
2023-05-25T02:01:15.112Z,11.50
2023-05-25T02:03:42.171Z,11.50
2023-05-25T02:06:09.065Z,11.50
2023-05-25T02:08:35.995Z,11.50
2023-05-25T02:11:03.453Z,11.50
2023-05-25T02:13:30.326Z,11.40
2023-05-25T02:15:57.166Z,11.40
2023-05-25T02:18:24.020Z,11.40
2023-05-25T02:20:51.419Z,11.50
2023-05-25T02:23:19.339Z,11.50
2023-05-25T02:25:46.509Z,11.50
2023-05-25T02:28:14.322Z,11.60
2023-05-25T02:30:41.138Z,11.60
2023-05-25T02:33:07.883Z,11.60
2023-05-25T02:35:34.700Z,11.70
2023-05-25T02:38:01.954Z,11.70
2023-05-25T02:40:28.743Z,11.70
2023-05-25T02:42:55.740Z,11.70
2023-05-25T02:45:22.526Z,11.70
2023-05-25T02:47:49.353Z,11.70
2023-05-25T02:50:16.492Z,11.80
2023-05-25T02:52:43.548Z,11.80
2023-05-25T02:55:10.610Z,11.90
2023-05-25T02:57:39.079Z,11.90
2023-05-25T03:00:12.186Z,12.00
2023-05-25T03:02:39.409Z,12.10
2023-05-25T03:05:07.567Z,12.10
2023-05-25T03:07:34.583Z,12.20
2023-05-25T03:10:01.432Z,12.20
2023-05-25T03:12:28.388Z,12.30
2023-05-25T03:14:55.133Z,12.30
2023-05-25T03:17:22.049Z,12.30
2023-05-25T03:19:48.802Z,12.30
2023-05-25T03:22:15.929Z,12.30
2023-05-25T03:24:42.718Z,12.30
2023-05-25T03:27:09.593Z,12.40
2023-05-25T03:29:36.867Z,12.40
2023-05-25T03:32:03.953Z,12.40
2023-05-25T03:34:30.829Z,12.40
2023-05-25T03:36:57.663Z,12.50
2023-05-25T03:39:24.431Z,12.50
2023-05-25T03:41:51.972Z,12.60
2023-05-25T03:44:18.766Z,12.60
2023-05-25T03:46:46.103Z,12.70
2023-05-25T03:49:14.072Z,12.70
2023-05-25T03:51:41.705Z,12.70
2023-05-25T03:54:09.043Z,12.70
2023-05-25T03:56:35.794Z,12.70
2023-05-25T03:59:02.545Z,12.80
2023-05-25T04:01:30.123Z,12.80
2023-05-25T04:03:57.689Z,12.70
2023-05-25T04:06:25.581Z,12.70
2023-05-25T04:08:52.687Z,12.80
2023-05-25T04:11:19.925Z,12.80
2023-05-25T04:13:46.776Z,12.80
2023-05-25T04:16:14.031Z,12.80
2023-05-25T04:18:40.931Z,12.80
2023-05-25T04:21:08.150Z,12.80
2023-05-25T04:23:34.941Z,12.90
2023-05-25T04:26:01.689Z,12.90
2023-05-25T04:28:29.055Z,12.90
2023-05-25T04:30:57.257Z,12.90
2023-05-25T04:33:24.756Z,12.90
2023-05-25T04:35:51.585Z,12.90
2023-05-25T04:38:18.696Z,13.00
2023-05-25T04:40:46.486Z,13.00
2023-05-25T04:43:13.784Z,13.00
2023-05-25T04:45:40.717Z,13.00
2023-05-25T04:48:07.719Z,13.10
2023-05-25T04:50:34.633Z,13.10
2023-05-25T04:53:01.483Z,13.10
2023-05-25T04:55:28.644Z,13.20
2023-05-25T04:57:55.567Z,13.20
2023-05-25T05:00:22.447Z,13.30
2023-05-25T05:02:49.991Z,13.30
2023-05-25T05:05:17.869Z,13.40
2023-05-25T05:07:45.081Z,13.40
2023-05-25T05:10:12.011Z,13.40
2023-05-25T05:12:38.957Z,13.50
2023-05-25T05:15:06.257Z,13.60
2023-05-25T05:17:33.352Z,13.60
2023-05-25T05:20:00.552Z,13.60
2023-05-25T05:22:27.504Z,13.70
2023-05-25T05:24:54.889Z,13.70
2023-05-25T05:27:21.716Z,13.70
2023-05-25T05:29:48.906Z,13.70
2023-05-25T05:32:15.976Z,13.70
2023-05-25T05:34:42.886Z,13.70
2023-05-25T05:37:12.167Z,13.70
2023-05-25T05:39:38.872Z,13.80
2023-05-25T05:42:06.414Z,13.80
2023-05-25T05:44:33.405Z,13.90
2023-05-25T05:47:01.184Z,13.90
2023-05-25T05:49:29.224Z,14.00
2023-05-25T05:51:56.434Z,14.10
2023-05-25T05:54:23.365Z,14.10
2023-05-25T05:56:51.178Z,14.20
2023-05-25T05:59:18.078Z,14.30
2023-05-25T06:01:45.724Z,14.30
2023-05-25T06:04:12.636Z,14.30
2023-05-25T06:06:40.669Z,14.40
2023-05-25T06:09:07.456Z,14.50
2023-05-25T06:11:37.152Z,14.50
2023-05-25T06:14:04.410Z,14.50
2023-05-25T06:16:31.484Z,14.50
2023-05-25T06:18:58.493Z,14.70
2023-05-25T06:21:25.304Z,14.70
2023-05-25T06:23:52.090Z,14.70
2023-05-25T06:26:18.946Z,14.70
2023-05-25T06:28:47.851Z,14.60
2023-05-25T06:31:14.588Z,14.60
2023-05-25T06:33:41.446Z,14.60
2023-05-25T06:36:08.849Z,14.60
2023-05-25T06:38:35.614Z,14.60
2023-05-25T06:41:04.805Z,14.50
2023-05-25T06:43:32.629Z,14.50
2023-05-25T06:45:59.750Z,14.60
2023-05-25T06:48:26.856Z,14.70
2023-05-25T06:50:53.655Z,14.70
2023-05-25T06:53:20.697Z,14.80
2023-05-25T06:55:47.535Z,14.90
2023-05-25T06:58:14.388Z,15.00
2023-05-25T07:00:41.468Z,15.00
2023-05-25T07:03:08.484Z,15.00
2023-05-25T07:05:36.029Z,15.10
2023-05-25T07:08:02.966Z,15.10
2023-05-25T07:10:29.763Z,15.10
2023-05-25T07:12:57.277Z,15.10
2023-05-25T07:15:24.901Z,15.00
2023-05-25T07:17:51.744Z,15.10
2023-05-25T07:20:19.273Z,15.30
2023-05-25T07:22:47.295Z,15.40
2023-05-25T07:25:14.875Z,15.50
2023-05-25T07:27:42.912Z,15.60
2023-05-25T07:30:10.678Z,15.60
2023-05-25T07:32:38.657Z,15.80
2023-05-25T07:35:06.087Z,15.90
2023-05-25T07:37:33.377Z,16.00
2023-05-25T07:40:00.453Z,16.00
2023-05-25T07:42:33.885Z,16.10
2023-05-25T07:45:01.778Z,16.20
2023-05-25T07:47:29.003Z,16.30
2023-05-25T07:49:55.913Z,16.30
2023-05-25T07:52:23.168Z,16.40
2023-05-25T07:54:50.101Z,16.40
2023-05-25T07:57:19.012Z,16.60
2023-05-25T07:59:46.344Z,16.80
2023-05-25T08:02:13.277Z,16.90
2023-05-25T08:04:40.236Z,17.10
2023-05-25T08:07:07.455Z,17.20
2023-05-25T08:09:34.446Z,17.20
2023-05-25T08:12:24.016Z,17.30
2023-05-25T08:14:49.221Z,17.40
2023-05-25T08:17:16.167Z,17.40
2023-05-25T08:19:43.144Z,17.40
2023-05-25T08:22:10.132Z,17.40
2023-05-25T08:24:36.987Z,17.20
2023-05-25T08:27:03.955Z,16.90
2023-05-25T08:29:31.354Z,16.70
2023-05-25T08:31:58.264Z,16.70
2023-05-25T08:34:25.070Z,16.70
2023-05-25T08:36:52.419Z,16.70
2023-05-25T08:39:20.128Z,16.70
2023-05-25T08:41:47.003Z,16.60
2023-05-25T08:44:15.410Z,16.60
2023-05-25T08:46:42.421Z,16.60
2023-05-25T08:49:13.669Z,16.60
2023-05-25T08:51:49.666Z,16.80
2023-05-25T08:54:19.013Z,16.90
2023-05-25T08:57:11.840Z,16.80
2023-05-25T08:59:42.260Z,16.80
2023-05-25T09:02:21.023Z,16.80
2023-05-25T09:04:48.001Z,17.00
2023-05-25T09:07:14.817Z,17.10
2023-05-25T09:09:42.497Z,17.20
2023-05-25T09:12:10.505Z,17.30
2023-05-25T09:14:37.913Z,17.20
2023-05-25T09:17:04.969Z,17.20
2023-05-25T09:19:31.796Z,17.30
2023-05-25T09:22:13.938Z,17.60
2023-05-25T09:24:41.639Z,18.00
2023-05-25T09:27:11.365Z,18.10
2023-05-25T09:29:38.278Z,18.20
2023-05-25T09:32:08.407Z,18.30
2023-05-25T09:34:35.317Z,18.50
2023-05-25T09:37:15.165Z,18.70
2023-05-25T09:39:42.820Z,18.80
2023-05-25T09:42:10.740Z,18.80
2023-05-25T09:44:38.044Z,18.70
2023-05-25T09:47:05.375Z,18.70
2023-05-25T09:49:32.164Z,18.70
2023-05-25T09:51:59.233Z,18.70
2023-05-25T09:54:26.964Z,18.80
2023-05-25T09:56:53.998Z,18.80
2023-05-25T09:59:22.961Z,18.60
2023-05-25T10:04:40.384Z,18.40
2023-05-25T10:07:09.071Z,18.40
2023-05-25T10:09:42.340Z,18.30
2023-05-25T10:12:09.257Z,18.10
2023-05-25T10:14:36.985Z,18.10
2023-05-25T10:17:05.539Z,18.20
2023-05-25T10:19:41.449Z,18.30
2023-05-25T10:22:22.809Z,18.40
2023-05-25T10:24:49.712Z,18.50
2023-05-25T10:27:28.057Z,18.70
2023-05-25T10:29:56.458Z,18.70
2023-05-25T10:32:23.471Z,18.70
2023-05-25T10:34:51.589Z,18.80
2023-05-25T10:37:18.682Z,18.90
2023-05-25T10:39:45.577Z,18.90
2023-05-25T10:42:13.256Z,18.90
2023-05-25T10:44:43.242Z,19.00
2023-05-25T10:47:10.444Z,19.10
2023-05-25T10:49:52.662Z,19.20
2023-05-25T10:52:22.875Z,19.30
2023-05-25T10:54:49.726Z,19.40
2023-05-25T10:57:21.843Z,19.30
2023-05-25T10:59:52.113Z,19.40
2023-05-25T11:02:24.985Z,19.40
2023-05-25T11:04:52.211Z,19.50
2023-05-25T11:07:19.778Z,19.60
2023-05-25T11:09:58.535Z,19.40
2023-05-25T11:12:26.060Z,19.30
2023-05-25T11:15:12.304Z,19.40
2023-05-25T11:17:47.022Z,19.60
2023-05-25T11:20:32.604Z,19.50
2023-05-25T11:22:59.738Z,19.40
2023-05-25T11:25:39.294Z,19.60
2023-05-25T11:28:07.051Z,19.80
2023-05-25T11:30:34.035Z,19.90
2023-05-25T11:33:04.645Z,19.80
2023-05-25T11:35:33.754Z,19.80
2023-05-25T11:38:01.631Z,19.60
2023-05-25T11:40:31.667Z,19.50
2023-05-25T11:43:00.978Z,19.50
2023-05-25T11:45:33.505Z,19.70
2023-05-25T11:48:00.603Z,19.90
2023-05-25T11:50:28.366Z,20.10
2023-05-25T11:52:55.444Z,20.10
2023-05-25T11:55:22.274Z,20.40
2023-05-25T11:57:55.917Z,20.20
2023-05-25T12:00:27.712Z,20.20
2023-05-25T12:02:54.705Z,20.00
2023-05-25T12:05:23.414Z,19.90
2023-05-25T12:07:50.487Z,19.80
2023-05-25T12:10:17.372Z,19.70
2023-05-25T12:12:58.561Z,19.50
2023-05-25T12:15:25.842Z,19.50
2023-05-25T12:17:53.511Z,19.60
2023-05-25T12:20:20.625Z,19.60
2023-05-25T12:22:47.635Z,19.80
2023-05-25T12:25:15.880Z,19.80
2023-05-25T12:27:42.943Z,19.90
2023-05-25T12:30:10.498Z,20.20
2023-05-25T12:33:02.214Z,20.40
2023-05-25T12:35:31.223Z,20.10
2023-05-25T12:38:11.493Z,20.30
2023-05-25T12:40:38.239Z,20.10
2023-05-25T12:43:05.017Z,19.90
2023-05-25T12:45:31.857Z,19.70
2023-05-25T12:48:00.050Z,19.80
2023-05-25T12:50:27.576Z,19.90
2023-05-25T12:53:01.387Z,20.00
2023-05-25T12:55:29.353Z,20.20
2023-05-25T12:58:01.514Z,21.00
2023-05-25T13:00:31.861Z,21.70
2023-05-25T13:02:58.789Z,21.70
2023-05-25T13:05:29.801Z,21.30
2023-05-25T13:07:57.360Z,21.00
2023-05-25T13:10:24.373Z,20.50
2023-05-25T13:12:51.866Z,20.10
2023-05-25T13:15:22.361Z,19.80
2023-05-25T13:17:50.542Z,19.80
2023-05-25T13:20:19.145Z,19.90
2023-05-25T13:22:46.914Z,20.60
2023-05-25T13:25:13.797Z,20.80
2023-05-25T13:27:50.457Z,20.90
2023-05-25T13:30:17.304Z,21.10
2023-05-25T13:32:44.463Z,20.90
2023-05-25T13:35:30.578Z,21.50
2023-05-25T13:37:57.366Z,22.10
2023-05-25T13:40:24.350Z,23.40
2023-05-25T13:42:51.268Z,22.90
2023-05-25T13:45:18.497Z,22.30
2023-05-25T13:47:46.325Z,21.40
2023-05-25T13:50:13.206Z,20.60
2023-05-25T13:52:39.994Z,20.00
2023-05-25T13:55:07.523Z,20.00
2023-05-25T13:57:34.277Z,20.10
2023-05-25T14:00:00.959Z,20.40
2023-05-25T14:02:27.852Z,21.00
2023-05-25T14:04:55.109Z,21.50
2023-05-25T14:07:21.805Z,22.80
2023-05-25T14:09:48.545Z,23.20
2023-05-25T14:12:15.283Z,23.40
2023-05-25T14:14:42.204Z,23.40
2023-05-25T14:17:08.994Z,22.70
2023-05-25T14:19:35.832Z,22.40
2023-05-25T14:24:32.246Z,21.30
2023-05-25T14:26:59.168Z,21.30
2023-05-25T14:29:26.019Z,21.60
2023-05-25T14:31:53.011Z,22.70
2023-05-25T14:34:19.930Z,23.00
2023-05-25T14:36:46.679Z,23.10
2023-05-25T14:39:15.742Z,23.10
2023-05-25T14:41:43.922Z,23.40
2023-05-25T14:44:10.712Z,23.60
2023-05-25T14:46:37.582Z,24.10
2023-05-25T14:49:04.412Z,24.70
2023-05-25T14:51:31.198Z,25.40
2023-05-25T14:54:00.613Z,25.60
2023-05-25T14:56:28.038Z,26.30
2023-05-25T14:58:54.877Z,26.00
2023-05-25T15:01:23.714Z,25.60
2023-05-25T15:03:52.054Z,26.10
2023-05-25T15:06:18.911Z,25.30
2023-05-25T15:08:45.812Z,24.90
2023-05-25T15:11:12.540Z,24.70
2023-05-25T15:13:40.954Z,25.10
2023-05-25T15:16:11.268Z,25.50
2023-05-25T15:18:38.034Z,26.30
2023-05-25T15:21:04.784Z,26.60
2023-05-25T15:23:32.100Z,25.60
2023-05-25T15:26:03.193Z,24.30
2023-05-25T15:28:33.327Z,24.40
2023-05-25T15:31:02.782Z,24.70
2023-05-25T15:33:47.120Z,24.60
2023-05-25T15:36:15.075Z,23.90
2023-05-25T15:38:43.361Z,24.00
2023-05-25T15:41:11.540Z,24.70
2023-05-25T15:43:38.328Z,24.50
2023-05-25T15:46:05.209Z,24.20
2023-05-25T15:48:31.980Z,24.80
2023-05-25T15:50:58.764Z,25.70
2023-05-25T15:53:25.701Z,26.00
2023-05-25T15:55:52.675Z,26.50
2023-05-25T15:58:19.848Z,25.80
2023-05-25T16:00:46.658Z,25.30
2023-05-25T16:03:13.562Z,24.60
2023-05-25T16:05:40.473Z,23.50
2023-05-25T16:08:07.312Z,24.00
2023-05-25T16:10:34.248Z,24.40
2023-05-25T16:13:01.154Z,24.00
2023-05-25T16:15:28.024Z,23.40
2023-05-25T16:17:54.925Z,24.20
2023-05-25T16:20:21.725Z,24.90
2023-05-25T16:22:48.604Z,24.40
2023-05-25T16:25:15.484Z,25.00
2023-05-25T16:27:42.788Z,25.60
2023-05-25T16:30:12.549Z,24.30
2023-05-25T16:32:40.552Z,24.80
2023-05-25T16:35:07.644Z,24.40
2023-05-25T16:37:34.717Z,24.50
2023-05-25T16:40:01.554Z,24.30
2023-05-25T16:42:28.420Z,24.20
2023-05-25T16:44:55.222Z,25.00
2023-05-25T16:47:22.749Z,25.10
2023-05-25T16:49:49.716Z,24.40
2023-05-25T16:52:16.825Z,24.00
2023-05-25T16:54:43.960Z,24.40
2023-05-25T16:57:12.175Z,25.10
2023-05-25T16:59:39.429Z,25.00
2023-05-25T17:02:07.466Z,25.20
2023-05-25T17:04:34.318Z,24.80
2023-05-25T17:07:01.114Z,25.00
2023-05-25T17:09:28.174Z,23.80
2023-05-25T17:11:59.475Z,22.50
2023-05-25T17:14:26.690Z,21.70
2023-05-25T17:16:54.184Z,21.50
2023-05-25T17:19:21.045Z,22.20
2023-05-25T17:21:48.484Z,22.40
2023-05-25T17:24:15.466Z,22.30
2023-05-25T17:26:42.246Z,23.20
2023-05-25T17:29:09.155Z,23.90
2023-05-25T17:31:36.177Z,24.30
2023-05-25T17:34:03.200Z,24.00
2023-05-25T17:36:30.025Z,22.90
2023-05-25T17:38:56.930Z,22.00
2023-05-25T17:41:23.789Z,21.30
2023-05-25T17:43:50.785Z,21.10
2023-05-25T17:46:17.913Z,20.40
2023-05-25T17:48:45.862Z,19.90
2023-05-25T17:51:13.135Z,19.80
2023-05-25T17:53:40.152Z,19.70
2023-05-25T17:56:07.275Z,20.50
2023-05-25T17:58:36.983Z,21.20
2023-05-25T18:01:04.388Z,21.70
2023-05-25T18:03:31.517Z,21.20
2023-05-25T18:05:58.617Z,20.60
2023-05-25T18:08:25.766Z,20.40
2023-05-25T18:10:52.958Z,20.00
2023-05-25T18:13:19.846Z,19.50
2023-05-25T18:15:47.156Z,18.90
2023-05-25T18:18:15.805Z,18.60
2023-05-25T18:20:45.848Z,18.60
2023-05-25T18:23:13.388Z,18.50
2023-05-25T18:25:41.166Z,18.20
2023-05-25T18:28:08.362Z,18.20
2023-05-25T18:30:35.587Z,17.90
2023-05-25T18:33:02.496Z,17.70
2023-05-25T18:35:29.309Z,17.70
2023-05-25T18:37:56.143Z,17.60
2023-05-25T18:40:23.438Z,17.50
2023-05-25T18:42:50.957Z,17.50
2023-05-25T18:45:18.377Z,17.20
2023-05-25T18:47:47.252Z,17.20
2023-05-25T18:50:14.281Z,17.00
2023-05-25T18:52:41.823Z,17.10
2023-05-25T18:55:08.886Z,17.10
2023-05-25T18:57:35.949Z,17.10
2023-05-25T19:00:03.660Z,16.90
2023-05-25T19:02:30.988Z,16.80
2023-05-25T19:04:57.866Z,16.70
2023-05-25T19:07:24.938Z,16.60
2023-05-25T19:09:52.543Z,16.60
2023-05-25T19:12:20.930Z,16.60
2023-05-25T19:14:49.697Z,16.60
2023-05-25T19:17:18.739Z,16.60
2023-05-25T19:19:46.064Z,16.60
2023-05-25T19:22:13.305Z,16.40
2023-05-25T19:24:42.677Z,16.30
2023-05-25T19:27:11.888Z,16.20
2023-05-25T19:29:39.303Z,16.00
2023-05-25T19:32:06.922Z,16.00
2023-05-25T19:34:34.246Z,15.90
2023-05-25T19:37:10.828Z,15.90
2023-05-25T19:39:38.765Z,15.80
2023-05-25T19:42:06.386Z,15.70
2023-05-25T19:44:33.633Z,15.50
2023-05-25T19:47:00.673Z,15.40
2023-05-25T19:49:28.673Z,15.40
2023-05-25T19:51:56.689Z,15.30
2023-05-25T19:54:23.639Z,15.30
2023-05-25T19:56:50.422Z,15.20
2023-05-25T19:59:17.173Z,15.10
2023-05-25T20:01:44.763Z,15.00
2023-05-25T20:04:11.977Z,14.90
2023-05-25T20:06:38.859Z,14.90
2023-05-25T20:09:06.112Z,14.80
2023-05-25T20:11:33.345Z,14.70
2023-05-25T20:14:00.571Z,14.60
2023-05-25T20:16:28.260Z,14.60
2023-05-25T20:18:55.401Z,14.50
2023-05-25T20:21:22.331Z,14.50
2023-05-25T20:23:49.200Z,14.40
2023-05-25T20:26:16.910Z,14.30
2023-05-25T20:28:43.697Z,14.30
2023-05-25T20:31:11.620Z,14.20
2023-05-25T20:33:38.420Z,14.10
2023-05-25T20:36:06.777Z,14.10
2023-05-25T20:38:33.618Z,13.90
2023-05-25T20:41:00.346Z,13.90
2023-05-25T20:43:27.162Z,13.80
2023-05-25T20:45:54.426Z,13.70
2023-05-25T20:48:21.492Z,13.70
2023-05-25T20:50:48.412Z,13.60
2023-05-25T20:53:16.018Z,13.60
2023-05-25T20:55:42.919Z,13.50
2023-05-25T20:58:09.907Z,13.50
2023-05-25T21:00:36.908Z,13.40
2023-05-25T21:03:05.044Z,13.40
2023-05-25T21:05:34.105Z,13.30
2023-05-25T21:08:01.600Z,13.20
2023-05-25T21:10:28.951Z,13.20
2023-05-25T21:12:55.690Z,13.20
2023-05-25T21:15:23.246Z,13.10
2023-05-25T21:17:50.316Z,13.10
2023-05-25T21:20:18.005Z,13.00
2023-05-25T21:22:44.884Z,13.00
2023-05-25T21:25:11.821Z,13.00
2023-05-25T21:27:38.635Z,12.90
2023-05-25T21:30:06.318Z,12.90
2023-05-25T21:32:33.139Z,12.80
2023-05-25T21:35:00.075Z,12.80
2023-05-25T21:37:28.135Z,12.80
2023-05-25T21:39:55.204Z,12.80
2023-05-25T21:42:22.290Z,12.70
2023-05-25T21:44:49.453Z,12.80
2023-05-25T21:47:16.302Z,12.80
2023-05-25T21:49:43.298Z,12.70
2023-05-25T21:52:10.361Z,12.70
2023-05-25T21:54:37.198Z,12.70
2023-05-25T21:57:04.272Z,12.60
2023-05-25T21:59:31.421Z,12.60
2023-05-25T22:01:58.325Z,12.50
2023-05-25T22:04:25.292Z,12.50
2023-05-25T22:06:52.394Z,12.40
2023-05-25T22:09:19.264Z,12.30
2023-05-25T22:11:46.065Z,12.30
2023-05-25T22:14:12.987Z,12.20
2023-05-25T22:16:39.868Z,12.20
2023-05-25T22:19:06.786Z,12.20
2023-05-25T22:21:33.687Z,12.20
2023-05-25T22:24:01.172Z,12.20
2023-05-25T22:26:29.250Z,12.10
2023-05-25T22:28:56.041Z,12.10
2023-05-25T22:31:25.672Z,12.10
2023-05-25T22:33:52.572Z,12.00
2023-05-25T22:36:19.544Z,12.00
2023-05-25T22:38:46.767Z,12.00
2023-05-25T22:41:13.806Z,12.00
2023-05-25T22:43:40.599Z,12.00
2023-05-25T22:46:08.033Z,11.90
2023-05-25T22:48:34.912Z,11.90
2023-05-25T22:51:01.758Z,11.90
2023-05-25T22:53:28.591Z,11.90
2023-05-25T22:55:55.433Z,11.80
2023-05-25T22:58:22.309Z,11.80
2023-05-25T23:00:49.063Z,11.70
2023-05-25T23:03:15.940Z,11.70
2023-05-25T23:05:42.875Z,11.60
2023-05-25T23:08:10.031Z,11.60
2023-05-25T23:10:36.836Z,11.60
2023-05-25T23:13:03.645Z,11.60
2023-05-25T23:15:30.811Z,11.60
2023-05-25T23:17:57.766Z,11.60
2023-05-25T23:20:24.873Z,11.50
2023-05-25T23:22:51.944Z,11.40
2023-05-25T23:25:19.021Z,11.40
2023-05-25T23:27:45.977Z,11.40
2023-05-25T23:30:13.151Z,11.30
2023-05-25T23:32:40.276Z,11.30
2023-05-25T23:35:07.532Z,11.20
2023-05-25T23:37:35.411Z,11.20
2023-05-25T23:40:02.521Z,11.20
2023-05-25T23:42:29.379Z,11.10
2023-05-25T23:44:56.474Z,11.10
2023-05-25T23:47:23.272Z,11.00
2023-05-25T23:49:50.561Z,11.00
2023-05-25T23:52:17.762Z,11.00
2023-05-25T23:54:45.275Z,11.00
2023-05-25T23:57:12.994Z,10.90
2023-05-25T23:59:40.332Z,10.90
